MMGL/GDL METAR and TAF weather

Enter ICAO airport designator
Station Type Date Time Source
MMGL METAR 2021/08/04 17:47 UTC NOAA

MMGL 041747Z 08004KT 6SM SCT020TCU 24/15 A3021 RMK SLP111 52002 958 8/200 HZY AC/CI


Station Type Date Time Source
MMGL Decoded METAR 2021/08/04 17:47 UTC NOAA

Don Miguel / Guadalaj, Mexico (MMGL) 20-31N 103-19W
Aug 04, 2021 - 01:47 PM EDT / 2021.08.04 1747 UTC
Wind: from the E (080 degrees) at 5 MPH (4 KT):0
Visibility: 6 mile(s):0
Sky conditions: partly cloudy
Weather: Towering cumulus clouds observed
Temperature: 75 F (24 C)
Dew Point: 59 F (15 C)
Relative Humidity: 57%
Pressure (altimeter): 30.21 in. Hg (1023 hPa)
Pressure tendency: 0.01 inches (0.2 hPa) higher than three hours ago
ob: MMGL 041747Z 08004KT 6SM SCT020TCU 24/15 A3021 RMK SLP111 52002 958 8/200 HZY AC/CI
cycle: 18

Station Type Date Time Source
MMGL TAF 2021/08/04 18:36 UTC NOAA

TAF MMGL 041629Z 0418/0524 14008KT 5SM HZ BKN020 BKN090 BKN200 TX27/0421Z TN18/0512Z
BECMG 0422/0423 5SM VC RA BKN020CB
TEMPO 0423/0503 3SM TSRA BKN015 OVC025CB
FM050300 00000KT 4SM RA BKN020CB OVC090
FM051000 00000KT 3SM BR HZ BKN015 BKN080 BKN200
FM051600 00000KT 4SM HZ SCT020 BKN090 BKN200
FM051900 30008KT 6SM HZ BKN025 BKN090 BKN200
TEMPO 0522/0524 4SM TSRA BKN025CB

Example: see airport list